Minden, Australia

9:49 PM AEST on April 27, 2017 (GMT +1000)
Minden | | Change Station

Elev 492 ft 27.54 °S, 152.57 °E | Updated 39 seconds ago

Clear
Clear
56.4 °F
Feels Like 56.4 °F
N
3.0
Wind Variable Wind from WSW
Gusts 7.0 mph

Today
High -- | Low -- °F
--% Chance of Precip.
Yesterday
High -- | Low -- °F
Precip. -- in
Pressure 29.98 in
Visibility 6.2 miles
Clouds
Dew Point 46 °F
Humidity 68%
Rainfall 0.00 in
Snow Depth Not available.
6:13 AM 5:21 PM
New Moon, 1% visible
METAR YAMB 271100Z AUTO 30005KT 9999 // ////// 12/07 Q1015
Pressure 29.98 in
Visibility 6.2 miles
Clouds
Dew Point 46 °F
Humidity 68%
Rainfall 0.00 in
Snow Depth Not available.
6:13 AM 5:21 PM
New Moon, 1% visible
METAR YAMB 271100Z AUTO 30005KT 9999 // ////// 12/07 Q1015

Get Severe Weather Alerts

Thanks for signing up!

Be on the lookout for a verification email in your inbox.

You'll start receiving the daily forecast at 8 AM.

×

10-Day Weather Forecast

×

Almanac

Astronomy

Apr. 27, 2017 Rise Set
Actual Time
Civil Twilight
Nautical Twilight
Astronomical Twilight
Moon
Length of Visible Light
Length of Day
Tomorrow will be .
, % of the Moon is Illuminated

Today's Extremes

Country Highs Country Lows

Community

WunderPhotos

WunderBlog® & News

Nearby

Air Quality

  Air Quality AQ Index Pollutant
Not available.

Snow Depth

Station Depth Elevation

Earthquake Activity

City Distance Mag. Time & Date
Minimum magnitude displayed is 2.5.

Coastal Water Temperatures

Place Temperature

Stations

Nearby Weather Stations

Station Location Temp. Windchill Dew Point Humidity Wind Precip. Elev Updated Type